createdAt,value
2019-04-25T00:00:46.768Z,9.80
2019-04-25T00:03:17.031Z,9.70
2019-04-25T00:05:46.732Z,9.70
2019-04-25T00:08:15.772Z,9.60
2019-04-25T00:10:44.216Z,9.60
2019-04-25T00:13:13.008Z,9.60
2019-04-25T00:15:41.950Z,9.60
2019-04-25T00:18:12.077Z,9.60
2019-04-25T00:20:43.516Z,9.60
2019-04-25T00:23:17.009Z,9.60
2019-04-25T00:25:51.221Z,9.50
2019-04-25T00:28:19.798Z,9.50
2019-04-25T00:30:48.214Z,9.50
2019-04-25T00:33:16.683Z,9.40
2019-04-25T00:35:45.745Z,9.40
2019-04-25T00:38:14.301Z,9.40
2019-04-25T00:40:43.525Z,9.30
2019-04-25T00:43:12.507Z,9.30
2019-04-25T00:45:42.407Z,9.30
2019-04-25T00:48:12.234Z,9.30
2019-04-25T00:50:42.487Z,9.20
2019-04-25T00:53:11.388Z,9.20
2019-04-25T00:55:41.459Z,9.20
2019-04-25T00:58:26.903Z,9.20
2019-04-25T01:01:12.219Z,9.10
2019-04-25T01:03:42.255Z,9.10
2019-04-25T01:06:12.032Z,9.10
2019-04-25T01:08:41.514Z,9.10
2019-04-25T01:11:11.489Z,9.10
2019-04-25T01:13:40.119Z,9.10
2019-04-25T01:16:09.140Z,9.10
2019-04-25T01:18:37.558Z,9.10
2019-04-25T01:21:06.131Z,9.10
2019-04-25T01:23:34.720Z,9.10
2019-04-25T01:26:03.337Z,9.10
2019-04-25T01:28:31.844Z,9.10
2019-04-25T01:31:00.359Z,9.10
2019-04-25T01:33:28.851Z,9.10
2019-04-25T01:36:15.458Z,9.10
2019-04-25T01:38:51.355Z,9.10
2019-04-25T01:41:35.732Z,9.10
2019-04-25T01:44:24.413Z,9.10
2019-04-25T01:46:54.468Z,9.10
2019-04-25T01:49:23.965Z,9.00
2019-04-25T01:51:54.779Z,9.10
2019-04-25T01:54:23.787Z,9.00
2019-04-25T01:56:54.649Z,9.00
2019-04-25T01:59:23.746Z,9.00
2019-04-25T02:01:54.335Z,9.00
2019-04-25T02:04:23.201Z,9.00
2019-04-25T02:06:53.693Z,8.90
2019-04-25T02:09:23.299Z,9.00
2019-04-25T02:11:54.711Z,9.00
2019-04-25T02:14:24.087Z,9.00
2019-04-25T02:16:53.198Z,9.00
2019-04-25T02:19:24.097Z,9.00
2019-04-25T02:21:54.541Z,9.00
2019-04-25T02:24:23.717Z,8.90
2019-04-25T02:26:54.772Z,8.90
2019-04-25T02:29:23.518Z,8.90
2019-04-25T02:31:53.743Z,8.90
2019-04-25T02:34:24.781Z,8.80
2019-04-25T02:36:55.494Z,8.80
2019-04-25T02:39:24.574Z,8.80
2019-04-25T02:41:56.015Z,8.80
2019-04-25T02:44:24.763Z,8.80
2019-04-25T02:46:57.560Z,8.80
2019-04-25T02:49:39.400Z,8.80
2019-04-25T02:52:12.861Z,8.80
2019-04-25T02:54:38.125Z,8.80
2019-04-25T02:57:08.215Z,8.80
2019-04-25T02:59:37.264Z,8.80
2019-04-25T03:02:08.969Z,8.70
2019-04-25T03:04:37.153Z,8.80
2019-04-25T03:07:08.085Z,8.80
2019-04-25T03:09:36.003Z,8.80
2019-04-25T03:12:06.511Z,8.80
2019-04-25T03:14:35.340Z,8.90
2019-04-25T03:17:05.193Z,8.80
2019-04-25T03:19:38.943Z,8.80
2019-04-25T03:22:11.567Z,8.80
2019-04-25T03:24:39.247Z,8.80
2019-04-25T03:27:07.743Z,8.80
2019-04-25T03:29:36.268Z,8.80
2019-04-25T03:32:09.265Z,8.80
2019-04-25T03:34:54.886Z,8.80
2019-04-25T03:37:24.391Z,8.70
2019-04-25T03:39:53.555Z,8.70
2019-04-25T03:42:22.723Z,8.70
2019-04-25T03:44:53.801Z,8.70
2019-04-25T03:47:23.535Z,8.70
2019-04-25T03:49:55.151Z,8.70
2019-04-25T03:52:23.756Z,8.70
2019-04-25T03:54:53.437Z,8.70
2019-04-25T03:57:23.285Z,8.70
2019-04-25T03:59:53.616Z,8.70
2019-04-25T04:02:23.522Z,8.70
2019-04-25T04:04:53.612Z,8.80
2019-04-25T04:07:23.721Z,8.70
2019-04-25T04:09:53.285Z,8.70
2019-04-25T04:12:24.178Z,8.70
2019-04-25T04:14:53.732Z,8.70
2019-04-25T04:17:33.889Z,8.70
2019-04-25T04:20:05.633Z,8.70
2019-04-25T04:22:35.871Z,8.70
2019-04-25T04:25:07.480Z,8.70
2019-04-25T04:27:36.060Z,8.80
2019-04-25T04:30:08.029Z,8.80
2019-04-25T04:32:36.543Z,8.90
2019-04-25T04:35:07.163Z,8.80
2019-04-25T04:37:35.721Z,8.90
2019-04-25T04:40:05.967Z,8.90
2019-04-25T04:42:34.507Z,8.90
2019-04-25T04:45:03.695Z,9.00
2019-04-25T04:47:33.290Z,9.00
2019-04-25T04:50:03.842Z,9.10
2019-04-25T04:52:33.999Z,9.10
2019-04-25T04:55:08.303Z,9.20
2019-04-25T04:57:36.154Z,9.20
2019-04-25T05:00:05.425Z,9.30
2019-04-25T05:02:38.490Z,9.40
2019-04-25T05:05:25.110Z,9.50
2019-04-25T05:08:00.972Z,9.60
2019-04-25T05:10:33.289Z,9.60
2019-04-25T05:13:00.502Z,9.60
2019-04-25T05:15:28.925Z,9.70
2019-04-25T05:17:57.431Z,9.70
2019-04-25T05:20:25.868Z,9.70
2019-04-25T05:22:55.204Z,9.70
2019-04-25T05:25:24.710Z,9.80
2019-04-25T05:28:02.138Z,9.90
2019-04-25T05:30:26.502Z,10.00
2019-04-25T05:32:56.843Z,10.20
2019-04-25T05:35:25.477Z,10.40
2019-04-25T05:37:54.099Z,10.40
2019-04-25T05:40:24.102Z,10.50
2019-04-25T05:43:09.238Z,10.60
2019-04-25T05:45:38.013Z,10.60
2019-04-25T05:48:06.522Z,10.60
2019-04-25T05:50:35.054Z,10.70
2019-04-25T05:53:04.297Z,10.90
2019-04-25T05:55:34.186Z,11.10
2019-04-25T05:58:03.883Z,11.20
2019-04-25T06:00:34.132Z,11.30
2019-04-25T06:03:03.596Z,11.30
2019-04-25T06:05:33.545Z,11.50
2019-04-25T06:08:04.154Z,11.60
2019-04-25T06:10:37.181Z,11.80
2019-04-25T06:13:13.821Z,12.10
2019-04-25T06:15:44.274Z,12.50
2019-04-25T06:18:17.276Z,12.80
2019-04-25T06:20:45.767Z,13.20
2019-04-25T06:23:18.961Z,13.50
2019-04-25T06:25:47.739Z,13.60
2019-04-25T06:28:17.812Z,13.70
2019-04-25T06:30:46.271Z,13.70
2019-04-25T06:33:14.817Z,13.60
2019-04-25T06:35:44.186Z,13.70
2019-04-25T06:38:13.323Z,13.60
2019-04-25T06:40:43.602Z,13.60
2019-04-25T06:43:13.439Z,13.50
2019-04-25T06:46:00.047Z,13.40
2019-04-25T06:48:33.890Z,13.30
2019-04-25T06:51:03.909Z,13.20
2019-04-25T06:53:34.240Z,13.20
2019-04-25T06:56:03.495Z,13.40
2019-04-25T06:58:32.642Z,13.50
2019-04-25T07:01:03.376Z,13.50
2019-04-25T07:03:32.007Z,13.70
2019-04-25T07:06:00.467Z,13.90
2019-04-25T07:08:29.141Z,14.20
2019-04-25T07:10:57.641Z,14.30
2019-04-25T07:13:27.033Z,14.50
2019-04-25T07:15:55.688Z,14.40
2019-04-25T07:18:29.240Z,14.50
2019-04-25T07:20:54.425Z,14.60
2019-04-25T07:23:23.676Z,14.60
2019-04-25T07:25:55.095Z,14.60
2019-04-25T07:28:32.144Z,14.60
2019-04-25T07:31:03.614Z,14.60
2019-04-25T07:33:35.028Z,14.50
2019-04-25T07:36:04.356Z,14.50
2019-04-25T07:38:34.031Z,14.60
2019-04-25T07:41:03.523Z,14.90
2019-04-25T07:43:33.805Z,15.30
2019-04-25T07:46:03.461Z,15.50
2019-04-25T07:48:34.221Z,15.60
2019-04-25T07:51:03.734Z,15.80
2019-04-25T07:53:33.849Z,15.90
2019-04-25T07:56:04.164Z,15.70
2019-04-25T07:58:45.441Z,15.70
2019-04-25T08:01:05.904Z,15.70
2019-04-25T08:03:35.298Z,15.80
2019-04-25T08:06:05.255Z,15.90
2019-04-25T08:08:34.912Z,15.90
2019-04-25T08:11:06.628Z,15.90
2019-04-25T08:13:37.379Z,16.10
2019-04-25T08:16:07.579Z,16.30
2019-04-25T08:18:38.949Z,16.40
2019-04-25T08:21:07.562Z,16.20
2019-04-25T08:23:37.558Z,16.10
2019-04-25T08:26:06.436Z,16.20
2019-04-25T08:28:49.593Z,16.30
2019-04-25T08:31:05.123Z,16.50
2019-04-25T08:33:34.557Z,16.70
2019-04-25T08:36:08.938Z,17.00
2019-04-25T08:38:35.076Z,17.30
2019-04-25T08:41:04.749Z,17.40
2019-04-25T08:43:36.312Z,17.70
2019-04-25T08:46:04.219Z,17.60
2019-04-25T08:48:34.959Z,17.50
2019-04-25T08:51:08.999Z,17.20
2019-04-25T08:53:44.110Z,17.10
2019-04-25T08:56:14.972Z,16.90
2019-04-25T08:59:04.139Z,16.80
2019-04-25T09:01:29.879Z,16.90
2019-04-25T09:04:08.621Z,17.00
2019-04-25T09:06:37.572Z,17.30
2019-04-25T09:09:07.885Z,17.30
2019-04-25T09:11:37.882Z,17.00
2019-04-25T09:14:06.978Z,17.00
2019-04-25T09:16:36.639Z,16.80
2019-04-25T09:19:05.291Z,16.80
2019-04-25T09:21:36.096Z,16.50
2019-04-25T09:24:03.963Z,16.60
2019-04-25T09:26:33.970Z,16.70
2019-04-25T09:29:15.731Z,17.00
2019-04-25T09:31:34.580Z,17.20
2019-04-25T09:34:04.107Z,17.40
2019-04-25T09:36:33.626Z,17.70
2019-04-25T09:39:03.973Z,17.90
2019-04-25T09:41:33.579Z,17.90
2019-04-25T09:44:04.569Z,18.00
2019-04-25T09:46:35.936Z,18.10
2019-04-25T09:49:06.703Z,18.50
2019-04-25T09:51:37.589Z,19.10
2019-04-25T09:54:24.477Z,19.70
2019-04-25T09:56:55.320Z,20.00
2019-04-25T09:59:29.234Z,20.10
2019-04-25T10:01:54.560Z,20.00
2019-04-25T10:04:23.164Z,20.10
2019-04-25T10:06:53.329Z,20.20
2019-04-25T10:09:23.780Z,20.30
2019-04-25T10:11:52.608Z,20.20
2019-04-25T10:14:24.483Z,20.10
2019-04-25T10:16:53.913Z,20.00
2019-04-25T10:19:23.542Z,19.90
2019-04-25T10:21:55.049Z,20.00
2019-04-25T10:24:22.457Z,19.90
2019-04-25T10:26:51.172Z,20.10
2019-04-25T10:29:19.688Z,20.20
2019-04-25T10:31:49.189Z,20.10
2019-04-25T10:34:17.713Z,19.90
2019-04-25T10:36:46.830Z,19.70
2019-04-25T10:39:15.500Z,19.70
2019-04-25T10:41:46.106Z,19.80
2019-04-25T10:44:14.305Z,19.90
2019-04-25T10:46:45.675Z,19.80
2019-04-25T10:49:14.493Z,19.70
2019-04-25T10:51:44.756Z,19.60
2019-04-25T10:54:14.579Z,19.60
2019-04-25T10:56:45.683Z,19.70
2019-04-25T10:59:15.065Z,19.80
2019-04-25T11:01:45.093Z,20.10
2019-04-25T11:04:18.212Z,20.30
2019-04-25T11:06:47.439Z,20.30
2019-04-25T11:09:20.466Z,20.60
2019-04-25T11:11:49.104Z,21.00
2019-04-25T11:14:17.683Z,21.10
2019-04-25T11:16:46.645Z,21.20
2019-04-25T11:19:15.440Z,21.00
2019-04-25T11:21:45.290Z,21.20
2019-04-25T11:24:14.387Z,21.50
2019-04-25T11:26:47.182Z,21.80
2019-04-25T11:29:14.936Z,22.10
2019-04-25T11:31:46.166Z,22.50
2019-04-25T11:34:16.900Z,22.90
2019-04-25T11:36:45.547Z,22.80
2019-04-25T11:39:32.580Z,22.50
2019-04-25T11:42:01.468Z,22.20
2019-04-25T11:44:30.188Z,21.70
2019-04-25T11:46:58.880Z,21.60
2019-04-25T11:49:27.560Z,21.80
2019-04-25T11:51:56.195Z,22.00
2019-04-25T11:54:24.727Z,22.00
2019-04-25T11:56:54.706Z,21.80
2019-04-25T11:59:23.633Z,21.80
2019-04-25T12:01:56.056Z,21.70
2019-04-25T12:04:23.924Z,21.60
2019-04-25T12:06:53.190Z,21.50
2019-04-25T12:09:21.936Z,21.50
2019-04-25T12:11:50.432Z,21.50
2019-04-25T12:14:18.891Z,21.70
2019-04-25T12:16:49.132Z,21.90
2019-04-25T12:19:17.663Z,22.00
2019-04-25T12:21:46.112Z,22.10
2019-04-25T12:24:14.554Z,22.30
2019-04-25T12:26:45.257Z,22.40
2019-04-25T12:29:14.339Z,22.50
2019-04-25T12:31:45.311Z,22.50
2019-04-25T12:34:14.186Z,22.50
2019-04-25T12:36:44.392Z,22.70
2019-04-25T12:39:13.984Z,22.60
2019-04-25T12:41:45.592Z,22.60
2019-04-25T12:44:20.452Z,22.50
2019-04-25T12:46:50.572Z,22.50
2019-04-25T12:49:19.090Z,22.50
2019-04-25T12:51:47.819Z,22.70
2019-04-25T12:54:16.399Z,23.00
2019-04-25T12:56:44.854Z,23.20
2019-04-25T12:59:13.278Z,23.40
2019-04-25T13:01:43.330Z,23.40
2019-04-25T13:04:11.978Z,23.40
2019-04-25T13:06:40.428Z,23.40
2019-04-25T13:09:11.679Z,23.30
2019-04-25T13:11:40.203Z,23.00
2019-04-25T13:14:08.651Z,22.60
2019-04-25T13:16:37.115Z,22.50
2019-04-25T13:19:14.797Z,22.50
2019-04-25T13:21:35.871Z,22.30
2019-04-25T13:24:05.281Z,22.00
2019-04-25T13:26:35.604Z,22.00
2019-04-25T13:29:09.221Z,22.20
2019-04-25T13:31:42.356Z,22.40
2019-04-25T13:34:14.081Z,22.50
2019-04-25T13:36:44.203Z,22.70
2019-04-25T13:39:15.118Z,22.80
2019-04-25T13:41:45.023Z,23.00
2019-04-25T13:44:14.231Z,23.20
2019-04-25T13:46:43.309Z,23.40
2019-04-25T13:49:12.207Z,23.50
2019-04-25T13:51:40.798Z,23.70
2019-04-25T13:54:09.449Z,23.80
2019-04-25T13:56:40.525Z,24.00
2019-04-25T13:59:08.463Z,24.00
2019-04-25T14:01:37.138Z,23.90
2019-04-25T14:04:06.625Z,24.00
2019-04-25T14:06:36.290Z,24.10
2019-04-25T14:09:07.980Z,24.00
2019-04-25T14:11:36.419Z,24.10
2019-04-25T14:14:05.149Z,24.30
2019-04-25T14:16:38.105Z,24.30
2019-04-25T14:19:25.292Z,24.20
2019-04-25T14:21:55.488Z,24.30
2019-04-25T14:24:28.092Z,24.10
2019-04-25T14:26:54.229Z,24.10
2019-04-25T14:29:23.767Z,24.10
2019-04-25T14:31:53.330Z,24.00
2019-04-25T14:34:23.166Z,23.70
2019-04-25T14:36:54.078Z,23.40
2019-04-25T14:39:23.712Z,23.10
2019-04-25T14:41:52.363Z,22.80
2019-04-25T14:44:22.189Z,22.60
2019-04-25T14:46:50.778Z,22.50
2019-04-25T14:49:19.358Z,22.40
2019-04-25T14:51:47.802Z,22.40
2019-04-25T14:54:23.671Z,22.30
2019-04-25T14:56:53.947Z,22.50
2019-04-25T14:59:23.517Z,22.60
2019-04-25T15:01:53.419Z,22.70
2019-04-25T15:04:22.930Z,22.70
2019-04-25T15:06:52.363Z,22.70
2019-04-25T15:09:21.028Z,22.80
2019-04-25T15:11:49.462Z,22.80
2019-04-25T15:14:18.056Z,22.70
2019-04-25T15:16:46.593Z,22.50
2019-04-25T15:19:15.116Z,22.50
2019-04-25T15:21:43.576Z,22.50
2019-04-25T15:24:12.024Z,22.50
2019-04-25T15:26:40.495Z,22.60
2019-04-25T15:29:09.098Z,22.70
2019-04-25T15:31:37.614Z,22.40
2019-04-25T15:34:06.141Z,22.10
2019-04-25T15:36:48.128Z,22.00
2019-04-25T15:39:36.334Z,22.10
2019-04-25T15:42:22.807Z,22.20
2019-04-25T15:45:05.131Z,22.20
2019-04-25T15:47:34.112Z,22.10
2019-04-25T15:50:03.308Z,22.00
2019-04-25T15:52:31.815Z,22.00
2019-04-25T15:55:06.909Z,22.00
2019-04-25T15:57:30.469Z,21.90
2019-04-25T15:59:58.979Z,21.80
2019-04-25T16:02:28.760Z,21.80
2019-04-25T16:04:57.463Z,21.70
2019-04-25T16:07:27.122Z,21.70
2019-04-25T16:09:55.725Z,21.60
2019-04-25T16:12:24.152Z,21.70
2019-04-25T16:14:52.690Z,21.70
2019-04-25T16:17:21.184Z,21.60
2019-04-25T16:19:49.748Z,21.60
2019-04-25T16:22:18.344Z,21.50
2019-04-25T16:24:46.968Z,21.50
2019-04-25T16:27:15.729Z,21.30
2019-04-25T16:29:44.238Z,21.10
2019-04-25T16:32:20.440Z,20.70
2019-04-25T16:34:44.643Z,20.60
2019-04-25T16:37:13.158Z,20.40
2019-04-25T16:39:42.590Z,20.40
2019-04-25T16:42:11.426Z,20.20
2019-04-25T16:44:39.971Z,20.20
2019-04-25T16:47:08.898Z,19.90
2019-04-25T16:49:39.021Z,19.80
2019-04-25T16:52:09.364Z,19.80
2019-04-25T16:54:38.085Z,19.60
2019-04-25T16:57:06.822Z,19.60
2019-04-25T16:59:35.583Z,19.60
2019-04-25T17:02:04.296Z,19.50
2019-04-25T17:04:33.210Z,19.50
2019-04-25T17:07:01.840Z,19.50
2019-04-25T17:09:30.516Z,19.40
2019-04-25T17:11:59.446Z,19.30
2019-04-25T17:14:31.423Z,19.30
2019-04-25T17:17:17.480Z,19.10
2019-04-25T17:19:47.550Z,18.90
2019-04-25T17:22:16.354Z,18.70
2019-04-25T17:24:45.068Z,18.70
2019-04-25T17:27:15.244Z,18.60
2019-04-25T17:29:43.911Z,18.50
2019-04-25T17:32:14.008Z,18.40
2019-04-25T17:34:53.521Z,18.20
2019-04-25T17:37:23.880Z,18.10
2019-04-25T17:39:56.532Z,18.00
2019-04-25T17:42:24.996Z,18.00
2019-04-25T17:44:53.588Z,17.80
2019-04-25T17:47:22.052Z,17.70
2019-04-25T17:49:50.488Z,17.60
2019-04-25T17:52:19.096Z,17.50
2019-04-25T17:54:47.629Z,17.50
2019-04-25T17:57:16.329Z,17.40
2019-04-25T17:59:45.037Z,17.40
2019-04-25T18:02:14.084Z,17.30
2019-04-25T18:04:42.590Z,17.30
2019-04-25T18:07:11.215Z,17.30
2019-04-25T18:09:39.774Z,17.20
2019-04-25T18:12:08.283Z,17.10
2019-04-25T18:14:37.020Z,16.90
2019-04-25T18:17:05.737Z,16.90
2019-04-25T18:19:36.374Z,16.90
2019-04-25T18:22:06.576Z,16.80
2019-04-25T18:24:43.315Z,16.70
2019-04-25T18:27:13.610Z,16.70
2019-04-25T18:29:42.076Z,16.60
2019-04-25T18:32:10.646Z,16.60
2019-04-25T18:34:49.830Z,16.50
2019-04-25T18:37:38.521Z,16.50
2019-04-25T18:40:18.105Z,16.40
2019-04-25T18:43:03.211Z,16.40
2019-04-25T18:45:33.391Z,16.30
2019-04-25T18:48:01.812Z,16.20
2019-04-25T18:50:32.069Z,16.20
2019-04-25T18:53:02.206Z,16.20
2019-04-25T18:55:47.862Z,16.10
2019-04-25T18:58:18.013Z,16.00
2019-04-25T19:01:00.325Z,15.80
2019-04-25T19:03:46.635Z,15.70
2019-04-25T19:06:19.465Z,15.60
2019-04-25T19:08:48.194Z,15.60
2019-04-25T19:11:16.875Z,15.60
2019-04-25T19:13:45.579Z,15.50
2019-04-25T19:16:14.054Z,15.50
2019-04-25T19:18:45.189Z,15.40
2019-04-25T19:21:12.708Z,15.30
2019-04-25T19:23:41.810Z,15.30
2019-04-25T19:26:10.539Z,15.20
2019-04-25T19:28:39.966Z,15.10
2019-04-25T19:31:09.195Z,15.10
2019-04-25T19:33:37.713Z,15.10
2019-04-25T19:36:06.383Z,15.10
2019-04-25T19:38:34.899Z,15.10
2019-04-25T19:41:07.910Z,15.00
2019-04-25T19:43:38.031Z,15.00
2019-04-25T19:46:06.668Z,15.00
2019-04-25T19:48:35.132Z,15.00
2019-04-25T19:51:03.799Z,15.00
2019-04-25T19:53:32.221Z,15.00
2019-04-25T19:56:00.817Z,15.00
2019-04-25T19:58:29.267Z,15.00
2019-04-25T20:00:57.702Z,15.00
2019-04-25T20:03:30.722Z,15.00
2019-04-25T20:06:17.191Z,15.00
2019-04-25T20:08:55.781Z,15.00
2019-04-25T20:11:28.646Z,15.00
2019-04-25T20:13:57.113Z,15.00
2019-04-25T20:16:26.211Z,15.00
2019-04-25T20:18:54.745Z,15.00
2019-04-25T20:21:23.261Z,15.00
2019-04-25T20:23:52.139Z,15.00
2019-04-25T20:26:20.663Z,14.90
2019-04-25T20:28:49.221Z,14.90
2019-04-25T20:31:17.802Z,14.90
2019-04-25T20:33:46.880Z,14.90
2019-04-25T20:36:17.839Z,14.90
2019-04-25T20:38:45.981Z,14.80
2019-04-25T20:41:15.510Z,14.80
2019-04-25T20:43:44.088Z,14.80
2019-04-25T20:46:12.720Z,14.80
2019-04-25T20:48:41.199Z,14.80
2019-04-25T20:51:09.711Z,14.70
2019-04-25T20:53:38.178Z,14.80
2019-04-25T20:56:06.988Z,14.70
2019-04-25T20:58:35.419Z,14.70
2019-04-25T21:01:04.055Z,14.70
2019-04-25T21:03:32.623Z,14.70
2019-04-25T21:06:14.624Z,14.70
2019-04-25T21:08:43.073Z,14.60
2019-04-25T21:11:11.572Z,14.60
2019-04-25T21:13:44.797Z,14.50
2019-04-25T21:16:20.757Z,14.60
2019-04-25T21:18:51.032Z,14.50
2019-04-25T21:21:19.587Z,14.50
2019-04-25T21:23:48.047Z,14.50
2019-04-25T21:26:16.540Z,14.50
2019-04-25T21:28:44.979Z,14.50
2019-04-25T21:31:13.590Z,14.50
2019-04-25T21:33:42.109Z,14.50
2019-04-25T21:36:10.932Z,14.40
2019-04-25T21:38:39.748Z,14.40
2019-04-25T21:41:10.060Z,14.30
2019-04-25T21:43:46.128Z,14.20
2019-04-25T21:46:14.963Z,14.20
2019-04-25T21:48:43.786Z,14.20
2019-04-25T21:51:29.901Z,14.20
2019-04-25T21:53:59.291Z,14.10
2019-04-25T21:56:28.095Z,14.10
2019-04-25T21:58:57.584Z,14.10
2019-04-25T22:01:38.691Z,14.10
2019-04-25T22:04:07.511Z,14.00
2019-04-25T22:06:36.488Z,13.90
2019-04-25T22:09:07.989Z,13.90
2019-04-25T22:11:36.442Z,14.00
2019-04-25T22:14:05.626Z,14.00
2019-04-25T22:16:34.522Z,14.00
2019-04-25T22:19:06.149Z,14.00
2019-04-25T22:21:38.411Z,14.00
2019-04-25T22:24:11.250Z,13.90
2019-04-25T22:26:35.522Z,13.90
2019-04-25T22:29:05.438Z,13.90
2019-04-25T22:31:48.024Z,13.80
2019-04-25T22:34:18.175Z,13.80
2019-04-25T22:36:47.008Z,13.70
2019-04-25T22:39:15.436Z,13.70
2019-04-25T22:41:47.109Z,13.60
2019-04-25T22:44:17.317Z,13.60
2019-04-25T22:46:46.323Z,13.50
2019-04-25T22:49:14.762Z,13.50
2019-04-25T22:51:43.310Z,13.40
2019-04-25T22:54:12.188Z,13.40
2019-04-25T22:56:40.641Z,13.40
2019-04-25T22:59:09.453Z,13.40
2019-04-25T23:01:39.521Z,13.40
2019-04-25T23:04:25.931Z,13.40
2019-04-25T23:06:54.558Z,13.40
2019-04-25T23:09:23.004Z,13.40
2019-04-25T23:11:51.819Z,13.40
2019-04-25T23:14:20.671Z,13.40
2019-04-25T23:16:49.177Z,13.40
2019-04-25T23:19:17.622Z,13.40
2019-04-25T23:21:46.434Z,13.40
2019-04-25T23:24:16.559Z,13.30
2019-04-25T23:26:56.203Z,13.30
2019-04-25T23:29:24.670Z,13.30
2019-04-25T23:31:53.217Z,13.20
2019-04-25T23:34:21.963Z,13.20
2019-04-25T23:36:50.639Z,13.10
2019-04-25T23:39:19.385Z,13.10
2019-04-25T23:41:47.809Z,13.10
2019-04-25T23:44:16.270Z,13.10
2019-04-25T23:46:45.049Z,13.10
2019-04-25T23:49:13.514Z,13.10
2019-04-25T23:51:42.019Z,13.00
2019-04-25T23:54:10.850Z,13.10
2019-04-25T23:56:39.542Z,12.90
2019-04-25T23:59:08.923Z,12.90
